Time;durP1;ratioP1;P1;durP2;ratioP2;P2;SDS_P1;SDS_P2;PMS_P1;PMS_P2;Temp;Humidity;BMP_temperature;BMP_pressure;BME280_temperature;BME280_humidity;BME280_pressure;Samples;Min_cycle;Max_cycle;Signal;HPM_P1;HPM_P2
2021/09/20 00:00:20;;;;;;;13.30;11.70;;;14.10;99.90;;;;;;4977338;28;20758;-78
2021/09/20 00:02:49;;;;;;;11.98;10.77;;;14.10;99.90;;;;;;4977263;28;20496;-78
2021/09/20 00:05:16;;;;;;;14.63;11.32;;;14.10;99.90;;;;;;4977731;28;20436;-78
2021/09/20 00:07:43;;;;;;;15.18;11.48;;;14.10;99.90;;;;;;4978660;28;20043;-79
2021/09/20 00:10:11;;;;;;;13.80;11.68;;;14.10;99.90;;;;;;4978312;28;20531;-79
2021/09/20 00:12:38;;;;;;;14.60;11.68;;;14.20;99.90;;;;;;4976547;28;20142;-78
2021/09/20 00:15:08;;;;;;;12.30;11.00;;;14.20;99.90;;;;;;4977840;28;20066;-79
2021/09/20 00:17:35;;;;;;;13.77;11.15;;;14.20;99.90;;;;;;4978402;28;20462;-79
2021/09/20 00:20:04;;;;;;;14.13;11.77;;;14.10;99.90;;;;;;4977864;28;20050;-80
2021/09/20 00:22:31;;;;;;;15.00;12.38;;;14.10;99.90;;;;;;4977947;28;20050;-80
2021/09/20 00:24:59;;;;;;;13.07;11.45;;;14.10;99.90;;;;;;4978165;28;20150;-81
2021/09/20 00:27:25;;;;;;;13.27;11.27;;;14.00;99.90;;;;;;4979136;28;20580;-80
2021/09/20 00:29:53;;;;;;;13.93;11.45;;;14.00;99.90;;;;;;4979074;28;20133;-80
2021/09/20 00:32:20;;;;;;;14.10;12.30;;;14.00;99.90;;;;;;4978653;28;20054;-80
2021/09/20 00:34:47;;;;;;;13.88;11.75;;;13.90;99.90;;;;;;4978772;28;20134;-81
2021/09/20 00:37:15;;;;;;;12.57;11.27;;;13.90;99.90;;;;;;4978599;28;20051;-80
2021/09/20 00:39:42;;;;;;;13.95;12.45;;;13.80;99.90;;;;;;4978664;28;20137;-79
2021/09/20 00:42:09;;;;;;;14.25;11.43;;;13.80;99.90;;;;;;4977631;28;20139;-79
2021/09/20 00:44:36;;;;;;;13.95;11.05;;;13.70;99.90;;;;;;4978590;28;20057;-79
2021/09/20 00:47:03;;;;;;;15.80;12.00;;;13.70;99.90;;;;;;4980474;28;20051;-80
2021/09/20 00:49:30;;;;;;;15.15;12.05;;;13.70;99.90;;;;;;4981103;28;20065;-80
2021/09/20 00:51:57;;;;;;;13.50;11.35;;;13.60;99.90;;;;;;4980302;28;20114;-80
2021/09/20 00:54:26;;;;;;;15.95;11.98;;;13.60;99.90;;;;;;4979766;28;20053;-80
2021/09/20 00:56:53;;;;;;;15.15;12.32;;;13.60;99.90;;;;;;4981917;28;20106;-81
2021/09/20 00:59:21;;;;;;;14.98;12.25;;;13.60;99.90;;;;;;4981579;28;20089;-81
2021/09/20 01:01:49;;;;;;;13.75;11.57;;;13.60;99.90;;;;;;4981344;28;20130;-81
2021/09/20 01:04:16;;;;;;;13.55;12.15;;;13.50;99.90;;;;;;4980958;28;20135;-80
2021/09/20 01:06:43;;;;;;;16.20;12.43;;;13.40;99.90;;;;;;4980308;28;20126;-81
2021/09/20 01:09:10;;;;;;;13.60;12.18;;;13.40;99.90;;;;;;4984310;28;20141;-81
2021/09/20 01:11:38;;;;;;;15.43;12.23;;;13.40;99.90;;;;;;4983490;28;20137;-81
2021/09/20 01:14:06;;;;;;;14.40;12.57;;;13.40;99.90;;;;;;4984893;28;20517;-81
2021/09/20 01:16:33;;;;;;;14.27;12.77;;;13.50;99.90;;;;;;4984627;28;20079;-81
2021/09/20 01:19:00;;;;;;;17.02;12.85;;;13.50;99.90;;;;;;4984528;28;20107;-81
2021/09/20 01:21:27;;;;;;;17.88;13.20;;;13.40;99.90;;;;;;4981803;28;20057;-81
2021/09/20 01:23:55;;;;;;;14.25;12.43;;;13.40;99.90;;;;;;4996552;23;20101;-76
2021/09/20 01:26:22;;;;;;;15.70;12.43;;;13.30;99.90;;;;;;4979567;28;20047;-78
2021/09/20 01:28:49;;;;;;;16.80;12.10;;;13.20;99.90;;;;;;4983187;28;20081;-78
2021/09/20 01:31:16;;;;;;;14.93;12.95;;;13.20;99.90;;;;;;4982889;28;20082;-78
2021/09/20 01:33:43;;;;;;;16.98;12.68;;;13.20;99.90;;;;;;4981200;28;20142;-78
2021/09/20 01:36:10;;;;;;;16.25;12.50;;;13.20;99.90;;;;;;4981304;28;20146;-78
2021/09/20 01:38:37;;;;;;;15.48;12.52;;;13.20;99.90;;;;;;4981921;28;20506;-78
2021/09/20 01:41:06;;;;;;;14.57;12.00;;;13.20;99.90;;;;;;4981708;28;20133;-78
2021/09/20 01:43:33;;;;;;;16.42;12.80;;;13.10;99.90;;;;;;4981843;28;20051;-78
2021/09/20 01:45:59;;;;;;;15.02;12.48;;;13.10;99.90;;;;;;4979981;28;20089;-80
2021/09/20 01:48:26;;;;;;;16.27;13.18;;;13.10;99.90;;;;;;4980165;28;20106;-80
2021/09/20 01:50:53;;;;;;;18.83;13.23;;;13.10;99.90;;;;;;4981113;28;20055;-80
2021/09/20 01:53:20;;;;;;;16.65;13.73;;;13.10;99.90;;;;;;4982162;28;20078;-80
2021/09/20 01:55:47;;;;;;;15.77;12.52;;;13.10;99.90;;;;;;4982110;28;20118;-80
2021/09/20 01:58:15;;;;;;;16.40;13.38;;;13.10;99.90;;;;;;4982068;28;20051;-81
2021/09/20 02:00:45;;;;;;;14.55;12.52;;;13.00;99.90;;;;;;4982881;28;20138;-78
2021/09/20 02:03:13;;;;;;;14.95;12.68;;;13.10;99.90;;;;;;4982297;28;20043;-78
2021/09/20 02:05:41;;;;;;;14.40;12.82;;;13.00;99.90;;;;;;4981542;28;20065;-78
2021/09/20 02:08:08;;;;;;;17.23;13.20;;;13.10;99.90;;;;;;4983132;28;20497;-78
2021/09/20 02:10:35;;;;;;;15.82;12.73;;;13.10;99.90;;;;;;4982388;28;20136;-78
2021/09/20 02:13:02;;;;;;;16.83;12.68;;;13.00;99.90;;;;;;4982372;28;20059;-78
2021/09/20 02:15:30;;;;;;;14.00;12.43;;;13.00;99.90;;;;;;4997615;28;20035;-79
2021/09/20 02:17:57;;;;;;;17.98;13.10;;;13.00;99.90;;;;;;4998778;28;20051;-79
2021/09/20 02:20:24;;;;;;;15.65;13.05;;;13.00;99.90;;;;;;4998698;28;20062;-78
2021/09/20 02:22:51;;;;;;;16.98;12.82;;;12.90;99.90;;;;;;4990718;28;20054;-79
2021/09/20 02:25:20;;;;;;;16.23;12.90;;;12.90;99.90;;;;;;4983907;28;20078;-79
2021/09/20 02:27:47;;;;;;;16.95;13.13;;;12.90;99.90;;;;;;4986112;28;20054;-79
2021/09/20 02:30:14;;;;;;;17.90;12.80;;;12.80;99.90;;;;;;4985346;28;20149;-79
2021/09/20 02:32:43;;;;;;;14.88;12.82;;;12.80;99.90;;;;;;4983799;28;20074;-79
2021/09/20 02:35:10;;;;;;;15.35;12.70;;;12.80;99.90;;;;;;4983704;28;20111;-79
2021/09/20 02:37:37;;;;;;;16.33;13.90;;;12.80;99.90;;;;;;4983135;28;20131;-78
2021/09/20 02:40:06;;;;;;;16.45;13.32;;;12.80;99.90;;;;;;4981482;28;20054;-78
2021/09/20 02:42:33;;;;;;;19.70;13.80;;;12.80;99.90;;;;;;4980735;28;20057;-77
2021/09/20 02:45:00;;;;;;;17.08;13.35;;;12.70;99.90;;;;;;4981221;28;20138;-79
2021/09/20 02:47:27;;;;;;;17.90;13.38;;;12.80;99.90;;;;;;4978664;28;20131;-77
2021/09/20 02:49:55;;;;;;;16.23;13.20;;;12.70;99.90;;;;;;4978326;28;20057;-78
2021/09/20 02:52:22;;;;;;;14.65;12.95;;;12.70;99.90;;;;;;4978401;28;20474;-78
2021/09/20 02:54:48;;;;;;;16.90;14.15;;;12.60;99.90;;;;;;4978171;28;20089;-78
2021/09/20 02:57:15;;;;;;;15.88;13.68;;;12.50;99.90;;;;;;4981419;28;20051;-79
2021/09/20 02:59:42;;;;;;;15.93;12.85;;;12.50;99.90;;;;;;4983768;28;20054;-79
2021/09/20 03:02:09;;;;;;;16.58;13.63;;;12.40;99.90;;;;;;4982980;28;20115;-78
2021/09/20 03:04:36;;;;;;;15.32;13.68;;;12.30;99.90;;;;;;4983177;28;20141;-79
2021/09/20 03:07:04;;;;;;;16.40;13.18;;;12.30;99.90;;;;;;4982216;28;20528;-79
2021/09/20 03:09:31;;;;;;;15.63;13.55;;;12.30;99.90;;;;;;4983341;28;20114;-78
2021/09/20 03:11:58;;;;;;;16.55;13.70;;;12.20;99.90;;;;;;4981982;28;20130;-77
2021/09/20 03:14:25;;;;;;;18.25;14.23;;;12.20;99.90;;;;;;4980739;28;20129;-78
2021/09/20 03:16:52;;;;;;;15.05;13.38;;;12.10;99.90;;;;;;4980367;28;20106;-77
2021/09/20 03:19:19;;;;;;;16.88;13.98;;;12.10;99.90;;;;;;4978930;28;20138;-78
2021/09/20 03:21:46;;;;;;;17.02;14.15;;;12.10;99.90;;;;;;4979695;28;20089;-78
2021/09/20 03:24:14;;;;;;;18.55;14.48;;;12.10;99.90;;;;;;4984220;28;20062;-79
2021/09/20 03:26:42;;;;;;;17.02;14.23;;;12.20;99.90;;;;;;4981478;28;20082;-78
2021/09/20 03:29:09;;;;;;;16.90;14.27;;;12.20;99.90;;;;;;4980458;28;20046;-78
2021/09/20 03:31:36;;;;;;;18.42;13.98;;;12.30;99.90;;;;;;4978223;28;20106;-78
2021/09/20 03:34:04;;;;;;;16.48;13.65;;;12.30;99.90;;;;;;4981786;28;20082;-79
2021/09/20 03:36:31;;;;;;;16.98;13.80;;;12.30;99.90;;;;;;4979920;28;20110;-78
2021/09/20 03:38:57;;;;;;;16.30;14.07;;;12.30;99.90;;;;;;4976189;28;20105;-78
2021/09/20 03:41:26;;;;;;;17.52;14.95;;;12.30;99.90;;;;;;4977561;28;20138;-79
2021/09/20 03:43:52;;;;;;;16.40;14.02;;;12.30;99.90;;;;;;4984557;28;20078;-79
2021/09/20 03:46:19;;;;;;;15.52;13.60;;;12.30;99.90;;;;;;4986978;28;20086;-79
2021/09/20 03:48:46;;;;;;;19.88;14.40;;;12.30;99.90;;;;;;4982846;28;20134;-79
2021/09/20 03:51:14;;;;;;;17.50;14.82;;;12.20;99.90;;;;;;4979145;28;20544;-78
2021/09/20 03:53:41;;;;;;;16.88;14.05;;;12.10;99.90;;;;;;4978418;28;20050;-79
2021/09/20 03:56:08;;;;;;;17.13;13.68;;;12.00;99.90;;;;;;4979158;28;20046;-77
2021/09/20 03:58:37;;;;;;;18.52;14.93;;;12.00;99.90;;;;;;4979534;28;20061;-78
2021/09/20 04:01:05;;;;;;;17.17;14.40;;;11.90;99.90;;;;;;4977608;28;20055;-77
2021/09/20 04:03:32;;;;;;;18.77;14.95;;;11.80;99.90;;;;;;4974956;28;20051;-77
2021/09/20 04:05:59;;;;;;;18.92;15.02;;;11.70;99.90;;;;;;4975436;28;20466;-77
2021/09/20 04:08:28;;;;;;;18.73;14.85;;;11.60;99.90;;;;;;4975856;28;20138;-77
2021/09/20 04:10:56;;;;;;;18.88;14.13;;;11.60;99.90;;;;;;4975372;28;20065;-77
2021/09/20 04:13:23;;;;;;;19.65;15.38;;;11.60;99.90;;;;;;4974892;28;20584;-77
2021/09/20 04:15:53;;;;;;;18.15;14.43;;;11.60;99.90;;;;;;4973994;28;20054;-77
2021/09/20 04:18:21;;;;;;;18.25;14.65;;;11.50;99.90;;;;;;4974365;28;20625;-77
2021/09/20 04:20:48;;;;;;;20.45;15.02;;;11.50;99.90;;;;;;4974585;28;20054;-77
2021/09/20 04:23:15;;;;;;;21.25;14.48;;;11.50;99.90;;;;;;4974447;28;20409;-77
2021/09/20 04:25:43;;;;;;;18.63;14.35;;;11.50;99.90;;;;;;4974094;28;20584;-76
2021/09/20 04:28:09;;;;;;;17.92;14.32;;;11.50;99.90;;;;;;4974802;28;20086;-76
2021/09/20 04:30:36;;;;;;;19.08;15.55;;;11.60;99.90;;;;;;4974057;28;20094;-76
2021/09/20 04:33:06;;;;;;;17.65;14.77;;;11.60;99.90;;;;;;4972911;28;20078;-75
2021/09/20 04:35:33;;;;;;;19.60;15.07;;;11.60;99.90;;;;;;4971862;28;20437;-79
2021/09/20 04:38:00;;;;;;;19.58;14.65;;;11.60;99.90;;;;;;4972755;28;20522;-77
2021/09/20 04:40:27;;;;;;;20.73;14.95;;;11.60;99.90;;;;;;4973249;28;20592;-77
2021/09/20 04:42:53;;;;;;;20.55;14.70;;;11.60;99.90;;;;;;4973265;28;20509;-78
2021/09/20 04:45:20;;;;;;;21.38;15.65;;;11.50;99.90;;;;;;4973588;28;20086;-78
2021/09/20 04:47:47;;;;;;;19.13;15.07;;;11.60;99.90;;;;;;4972575;28;20046;-77
2021/09/20 04:50:16;;;;;;;19.60;15.43;;;11.60;99.90;;;;;;4973030;28;20116;-77
2021/09/20 04:52:43;;;;;;;19.15;14.80;;;11.60;99.90;;;;;;4972882;28;20141;-76
2021/09/20 04:55:10;;;;;;;21.05;14.68;;;11.60;99.90;;;;;;4973080;28;20055;-77
2021/09/20 04:57:39;;;;;;;17.80;14.02;;;11.60;99.90;;;;;;4972341;28;20051;-77
2021/09/20 05:00:08;;;;;;;24.88;16.25;;;11.60;99.90;;;;;;4972780;28;20042;-77
2021/09/20 05:02:36;;;;;;;16.42;14.63;;;11.60;99.90;;;;;;4973351;28;20082;-76
2021/09/20 05:05:03;;;;;;;16.85;13.88;;;11.60;99.90;;;;;;4973527;28;20054;-77
2021/09/20 05:07:33;;;;;;;18.77;13.60;;;11.50;99.90;;;;;;4972018;28;20065;-77
2021/09/20 05:10:00;;;;;;;20.80;14.20;;;11.50;99.90;;;;;;4972799;28;20129;-77
2021/09/20 05:12:27;;;;;;;18.40;14.93;;;11.60;99.90;;;;;;4972911;28;20099;-76
2021/09/20 05:14:54;;;;;;;19.50;14.57;;;11.50;99.90;;;;;;4971787;28;20611;-77
2021/09/20 05:17:21;;;;;;;21.35;14.88;;;11.50;99.90;;;;;;4971977;28;20134;-79
2021/09/20 05:19:47;;;;;;;20.95;15.50;;;11.60;99.90;;;;;;4989044;28;20124;-77
2021/09/20 05:22:14;;;;;;;19.67;15.75;;;11.60;99.90;;;;;;5011224;28;20478;-77
2021/09/20 05:24:43;;;;;;;18.75;14.65;;;11.70;99.90;;;;;;5011387;28;20057;-77
2021/09/20 05:27:09;;;;;;;18.38;14.57;;;11.80;99.90;;;;;;4981437;28;20061;-77
2021/09/20 05:29:36;;;;;;;21.20;14.82;;;11.80;99.90;;;;;;4972386;28;20130;-78
2021/09/20 05:32:04;;;;;;;20.13;14.57;;;11.90;99.90;;;;;;4972809;28;20489;-77
2021/09/20 05:34:30;;;;;;;19.35;15.25;;;11.90;99.90;;;;;;4973543;28;20133;-76
2021/09/20 05:36:57;;;;;;;19.38;14.82;;;12.00;99.90;;;;;;4967283;28;20058;-76
2021/09/20 05:39:24;;;;;;;20.02;15.02;;;12.00;99.90;;;;;;4954449;29;20051;-78
2021/09/20 05:41:53;;;;;;;17.55;14.70;;;12.10;99.90;;;;;;4963982;28;20133;-79
2021/09/20 05:44:19;;;;;;;18.75;14.35;;;12.10;99.90;;;;;;4973712;28;20110;-78
2021/09/20 05:46:46;;;;;;;17.33;14.45;;;12.20;99.90;;;;;;4973725;28;20082;-76
2021/09/20 05:49:13;;;;;;;17.08;14.27;;;12.20;99.90;;;;;;4972892;28;20082;-77
2021/09/20 05:51:40;;;;;;;18.92;14.13;;;12.30;99.90;;;;;;4972628;28;20134;-77
2021/09/20 05:54:08;;;;;;;20.15;14.82;;;12.30;99.90;;;;;;4972765;28;20134;-76
2021/09/20 05:56:35;;;;;;;18.40;13.32;;;12.30;99.90;;;;;;4975643;28;20394;-76
2021/09/20 05:59:04;;;;;;;20.33;13.60;;;12.30;99.90;;;;;;4975919;28;20086;-76
2021/09/20 06:01:31;;;;;;;20.83;13.43;;;12.40;99.90;;;;;;4978142;28;20070;-77
2021/09/20 06:03:58;;;;;;;22.05;14.52;;;12.40;99.90;;;;;;4976487;28;20453;-76
2021/09/20 06:06:24;;;;;;;17.63;13.77;;;12.50;99.90;;;;;;4976455;28;20125;-76
2021/09/20 06:08:51;;;;;;;19.25;14.13;;;12.50;99.90;;;;;;4973816;28;20466;-76
2021/09/20 06:11:18;;;;;;;23.23;14.02;;;12.60;99.90;;;;;;4976500;28;20085;-75
2021/09/20 06:13:45;;;;;;;16.75;12.93;;;12.70;99.90;;;;;;4975878;28;20047;-76
2021/09/20 06:16:15;;;;;;;19.65;13.93;;;12.80;99.90;;;;;;4974169;28;20486;-76
2021/09/20 06:18:42;;;;;;;20.63;13.73;;;12.90;99.90;;;;;;4976057;28;20043;-75
2021/09/20 06:21:09;;;;;;;18.10;14.07;;;12.90;99.90;;;;;;4975405;28;20572;-75
2021/09/20 06:23:36;;;;;;;22.02;13.13;;;13.00;99.90;;;;;;4973386;28;20058;-76
2021/09/20 06:26:03;;;;;;;18.30;13.70;;;13.00;99.90;;;;;;4976005;28;20078;-76
2021/09/20 06:28:30;;;;;;;22.75;15.30;;;13.00;99.90;;;;;;4974527;28;20537;-77
2021/09/20 06:31:01;;;;;;;23.33;12.55;;;13.20;99.90;;;;;;4975785;28;20082;-77
2021/09/20 06:33:30;;;;;;;15.85;12.40;;;13.30;99.90;;;;;;4974113;28;20101;-76
2021/09/20 06:35:57;;;;;;;17.98;12.90;;;13.40;99.90;;;;;;4976064;28;20118;-77
2021/09/20 06:38:24;;;;;;;16.60;11.63;;;13.50;99.90;;;;;;4975690;28;20047;-77
2021/09/20 06:40:51;;;;;;;15.07;11.15;;;13.70;99.90;;;;;;4974844;28;20134;-77
2021/09/20 06:43:19;;;;;;;12.82;9.85;;;13.90;99.90;;;;;;4974219;28;20668;-77
2021/09/20 06:45:46;;;;;;;13.48;10.00;;;14.10;99.90;;;;;;4975791;28;20050;-78
2021/09/20 06:48:13;;;;;;;12.90;10.38;;;14.40;99.90;;;;;;4975955;28;20414;-78
2021/09/20 06:50:41;;;;;;;11.57;9.75;;;14.60;99.90;;;;;;4975651;28;20054;-78
2021/09/20 06:53:08;;;;;;;12.50;9.75;;;14.80;99.90;;;;;;4975509;28;20150;-77
2021/09/20 06:55:35;;;;;;;13.93;10.38;;;14.80;99.90;;;;;;4975456;28;20480;-77
2021/09/20 06:58:02;;;;;;;12.13;9.35;;;14.90;99.90;;;;;;4975516;28;20531;-78
2021/09/20 07:00:31;;;;;;;14.00;10.25;;;14.80;99.90;;;;;;4978450;28;20089;-78
2021/09/20 07:02:58;;;;;;;13.20;10.13;;;14.90;99.90;;;;;;4976562;28;20557;-77
2021/09/20 07:05:25;;;;;;;12.10;9.63;;;14.90;99.90;;;;;;4975648;28;20054;-78
2021/09/20 07:07:53;;;;;;;12.30;9.82;;;15.00;99.90;;;;;;4975629;28;20138;-78
2021/09/20 07:10:21;;;;;;;16.92;10.23;;;15.00;99.90;;;;;;4975622;28;20114;-78
2021/09/20 07:12:47;;;;;;;14.00;9.65;;;15.00;99.90;;;;;;4976311;28;20097;-77
2021/09/20 07:15:16;;;;;;;10.75;8.93;;;14.90;99.90;;;;;;4978947;28;20142;-78
2021/09/20 07:17:43;;;;;;;10.65;9.00;;;14.90;99.90;;;;;;4976857;28;20086;-79
2021/09/20 07:20:11;;;;;;;11.23;9.60;;;15.00;99.90;;;;;;4977332;28;20074;-78
2021/09/20 07:22:38;;;;;;;11.65;9.15;;;15.10;99.90;;;;;;4976335;28;20101;-78
2021/09/20 07:25:08;;;;;;;11.43;8.88;;;15.20;99.90;;;;;;4999123;23;20138;-79
2021/09/20 07:27:35;;;;;;;11.80;8.68;;;15.30;99.90;;;;;;4978637;28;20077;-78
2021/09/20 07:30:03;;;;;;;10.35;8.60;;;15.30;99.90;;;;;;4979002;28;20082;-79
2021/09/20 07:32:29;;;;;;;11.52;8.70;;;15.50;99.90;;;;;;4978912;28;20477;-78
2021/09/20 07:34:56;;;;;;;12.20;9.45;;;15.70;99.90;;;;;;4978999;28;20078;-78
2021/09/20 07:37:23;;;;;;;11.32;9.05;;;15.70;99.90;;;;;;4978842;28;20074;-78
2021/09/20 07:39:50;;;;;;;10.70;8.80;;;15.80;99.90;;;;;;4978796;28;20110;-78
2021/09/20 07:42:19;;;;;;;12.13;9.48;;;15.70;99.90;;;;;;4978543;28;20083;-78
2021/09/20 07:44:46;;;;;;;11.60;8.60;;;15.90;99.90;;;;;;4978636;28;20082;-79
2021/09/20 07:47:13;;;;;;;10.52;8.60;;;16.40;99.90;;;;;;4978217;28;20607;-79
2021/09/20 07:49:39;;;;;;;12.55;8.80;;;16.60;99.90;;;;;;4979307;28;20051;-80
2021/09/20 07:52:06;;;;;;;9.98;8.50;;;17.00;99.90;;;;;;4980141;28;20086;-78
2021/09/20 07:54:33;;;;;;;10.85;9.13;;;17.30;99.90;;;;;;4980101;28;20106;-79
2021/09/20 07:57:00;;;;;;;9.80;8.80;;;17.50;99.90;;;;;;4979903;28;20046;-79
2021/09/20 07:59:29;;;;;;;11.70;9.07;;;17.60;99.90;;;;;;4991651;28;20054;-79
2021/09/20 08:01:55;;;;;;;11.15;8.70;;;17.40;99.90;;;;;;4996445;28;20062;-79
2021/09/20 08:04:22;;;;;;;10.88;8.57;;;17.40;99.90;;;;;;4994624;28;20135;-78
2021/09/20 08:06:49;;;;;;;10.13;8.60;;;17.50;99.90;;;;;;4991194;28;20059;-79
2021/09/20 08:09:16;;;;;;;11.85;8.68;;;17.40;99.90;;;;;;4981824;28;20043;-80
2021/09/20 08:11:43;;;;;;;9.52;8.38;;;17.70;99.90;;;;;;4979855;28;20471;-79
2021/09/20 08:14:10;;;;;;;13.55;9.00;;;18.10;99.90;;;;;;4977915;28;20497;-80
2021/09/20 08:16:38;;;;;;;10.25;9.15;;;17.80;99.90;;;;;;4976848;28;20118;-79
2021/09/20 08:19:05;;;;;;;11.95;8.60;;;17.70;99.90;;;;;;4978576;28;20150;-79
2021/09/20 08:21:33;;;;;;;11.10;8.27;;;17.90;99.90;;;;;;4978377;28;20085;-79
2021/09/20 08:24:00;;;;;;;11.77;8.95;;;18.10;99.90;;;;;;4976506;28;20102;-79
2021/09/20 08:26:28;;;;;;;9.20;7.93;;;18.10;99.90;;;;;;4978274;28;20568;-79
2021/09/20 08:28:55;;;;;;;10.10;8.20;;;18.20;99.90;;;;;;4977438;28;20105;-79
2021/09/20 08:31:24;;;;;;;9.85;7.93;;;17.80;99.90;;;;;;4981375;28;20137;-78
2021/09/20 08:33:53;;;;;;;9.57;8.57;;;17.80;99.90;;;;;;4981931;28;20061;-79
2021/09/20 08:36:20;;;;;;;10.73;8.23;;;17.50;99.90;;;;;;4981681;28;20134;-79
2021/09/20 08:38:47;;;;;;;9.10;8.15;;;17.60;99.90;;;;;;4983534;28;20464;-80
2021/09/20 08:41:15;;;;;;;10.38;8.65;;;17.50;99.90;;;;;;4980675;28;20588;-81
2021/09/20 08:43:43;;;;;;;13.02;8.95;;;17.30;99.90;;;;;;4982588;28;20111;-80
2021/09/20 08:46:10;;;;;;;14.38;8.98;;;17.20;99.90;;;;;;4983508;28;20078;-80
2021/09/20 08:48:40;;;;;;;14.25;9.07;;;17.30;99.90;;;;;;4983346;28;20082;-81
2021/09/20 08:51:10;;;;;;;13.82;8.90;;;17.20;99.90;;;;;;4984279;28;20141;-80
2021/09/20 08:53:37;;;;;;;9.45;8.35;;;17.00;99.90;;;;;;4982410;28;20105;-80
2021/09/20 08:56:04;;;;;;;12.25;8.93;;;17.10;99.90;;;;;;4982258;28;20097;-82
2021/09/20 08:58:31;;;;;;;10.27;8.68;;;17.20;99.90;;;;;;4982717;28;20081;-80
2021/09/20 09:00:59;;;;;;;10.48;8.35;;;17.10;99.90;;;;;;4982264;28;20130;-79
2021/09/20 09:03:28;;;;;;;10.63;8.65;;;17.20;99.90;;;;;;4982312;28;20134;-81
2021/09/20 09:05:55;;;;;;;9.63;8.63;;;17.30;99.90;;;;;;4982896;28;20086;-81
2021/09/20 09:08:32;;;;;;;9.52;8.20;;;17.50;99.90;;;;;;4983629;28;20115;-82
2021/09/20 09:11:02;;;;;;;9.63;8.35;;;17.80;99.90;;;;;;4983590;28;20082;-81
2021/09/20 09:13:35;;;;;;;10.15;8.65;;;17.80;99.90;;;;;;4981594;28;20540;-81
2021/09/20 09:16:13;;;;;;;9.60;8.48;;;17.50;99.90;;;;;;4982066;28;20514;-80
2021/09/20 09:19:05;;;;;;;10.38;8.45;;;17.30;99.90;;;;;;4982330;28;20119;-82
2021/09/20 09:21:35;;;;;;;10.43;8.15;;;17.30;99.90;;;;;;4984174;28;20086;-81
2021/09/20 09:24:06;;;;;;;10.30;8.50;;;17.20;99.90;;;;;;4985786;28;20058;-82
2021/09/20 09:26:33;;;;;;;9.77;8.50;;;17.20;99.90;;;;;;4987464;28;20106;-80
2021/09/20 09:29:11;;;;;;;9.38;8.23;;;17.00;99.90;;;;;;4985514;28;20098;-80
2021/09/20 09:31:39;;;;;;;9.32;8.43;;;17.10;99.90;;;;;;4985611;28;20050;-81
2021/09/20 09:34:18;;;;;;;9.60;8.25;;;17.10;99.90;;;;;;4982647;28;20051;-80
2021/09/20 09:36:45;;;;;;;9.95;8.20;;;17.20;99.90;;;;;;4982930;28;20129;-79
2021/09/20 09:39:14;;;;;;;10.95;8.20;;;17.20;99.90;;;;;;4983073;28;20093;-79
2021/09/20 09:41:42;;;;;;;10.50;8.98;;;17.20;99.90;;;;;;4982555;28;20110;-80
2021/09/20 09:44:11;;;;;;;11.70;8.75;;;17.40;99.90;;;;;;4981917;28;20485;-79
2021/09/20 09:46:40;;;;;;;10.98;8.43;;;17.60;99.90;;;;;;4981553;28;20074;-80
2021/09/20 09:49:15;;;;;;;10.27;8.27;;;17.80;99.90;;;;;;4981352;28;20473;-79
2021/09/20 09:51:56;;;;;;;8.55;7.65;;;17.90;99.90;;;;;;4981171;28;20085;-80
2021/09/20 09:54:28;;;;;;;9.07;8.18;;;17.80;99.90;;;;;;4981124;28;20054;-79
2021/09/20 09:57:11;;;;;;;;;;;17.80;99.90;;;;;;4980497;28;20142;-80
2021/09/20 09:59:39;;;;;;;9.27;8.25;;;17.80;99.90;;;;;;4981393;28;19926;-80
2021/09/20 10:02:25;;;;;;;10.07;7.75;;;17.70;99.90;;;;;;4982678;28;20082;-79
2021/09/20 10:04:54;;;;;;;8.75;7.85;;;17.60;99.90;;;;;;4982503;28;20424;-82
2021/09/20 10:07:26;;;;;;;10.63;8.60;;;17.70;99.90;;;;;;4983609;28;20505;-80
2021/09/20 10:09:55;;;;;;;8.80;7.90;;;17.80;99.90;;;;;;4983738;28;20101;-80
2021/09/20 10:12:24;;;;;;;10.60;8.52;;;17.80;99.90;;;;;;4981410;28;20309;-78
2021/09/20 10:14:53;;;;;;;8.80;7.10;;;17.90;99.90;;;;;;4981616;28;20047;-81
2021/09/20 10:17:22;;;;;;;11.98;8.15;;;18.00;99.90;;;;;;4984118;28;20062;-81
2021/09/20 10:19:48;;;;;;;8.63;7.72;;;17.90;99.90;;;;;;4983658;28;20074;-80
2021/09/20 10:22:17;;;;;;;11.98;8.15;;;18.10;99.90;;;;;;4982408;28;20457;-80
2021/09/20 10:24:46;;;;;;;9.98;8.25;;;18.20;99.90;;;;;;4982576;28;20119;-80
2021/09/20 10:27:16;;;;;;;9.55;8.00;;;18.40;99.90;;;;;;4983447;28;20051;-80
2021/09/20 10:29:49;;;;;;;10.07;8.82;;;18.60;99.90;;;;;;4983328;28;20138;-80
2021/09/20 10:32:16;;;;;;;;;;;18.60;99.90;;;;;;4981151;28;20051;-80
2021/09/20 10:34:43;;;;;;;10.43;7.57;;;18.60;99.90;;;;;;4978789;28;20352;-79
2021/09/20 10:37:12;;;;;;;10.68;8.23;;;18.40;99.90;;;;;;4979606;28;20519;-80
2021/09/20 10:39:55;;;;;;;9.55;7.97;;;18.20;99.90;;;;;;4977331;28;20437;-78
2021/09/20 10:43:03;;;;;;;12.20;9.30;;;18.20;99.90;;;;;;4979394;28;20457;-79
2021/09/20 10:45:55;;;;;;;10.70;8.30;;;18.30;99.90;;;;;;4939412;29;20062;-80
2021/09/20 10:48:54;;;;;;;12.18;8.35;;;18.10;99.90;;;;;;4936190;29;20055;-80
2021/09/20 10:51:27;;;;;;;9.90;8.65;;;18.00;99.90;;;;;;4976259;28;20050;-79
2021/09/20 10:54:22;;;;;;;10.23;8.65;;;18.10;99.90;;;;;;4980378;28;20053;-79
2021/09/20 10:56:52;;;;;;;8.88;7.93;;;18.10;99.90;;;;;;4958243;28;20616;-80
2021/09/20 10:59:28;;;;;;;10.90;8.10;;;18.30;99.90;;;;;;4982585;28;20054;-81
2021/09/20 11:02:01;;;;;;;10.70;8.57;;;18.30;99.90;;;;;;4980765;28;20046;-80
2021/09/20 11:04:30;;;;;;;11.82;8.80;;;18.30;99.90;;;;;;4981544;28;20090;-80
2021/09/20 11:07:19;;;;;;;10.43;8.45;;;18.40;99.90;;;;;;4982062;28;20357;-79
2021/09/20 11:10:03;;;;;;;12.18;8.18;;;18.40;99.90;;;;;;4980442;28;20098;-80
2021/09/20 11:12:31;;;;;;;10.77;8.55;;;18.40;99.90;;;;;;4983724;28;20047;-80
2021/09/20 11:15:12;;;;;;;9.00;8.10;;;18.40;99.90;;;;;;4981926;28;20047;-82
2021/09/20 11:17:42;;;;;;;9.48;8.20;;;18.50;99.90;;;;;;4982234;28;20073;-81
2021/09/20 11:20:26;;;;;;;9.80;8.05;;;18.40;99.90;;;;;;4979882;28;20057;-79
2021/09/20 11:23:15;;;;;;;9.25;8.23;;;18.30;99.90;;;;;;4975834;28;20206;-78
2021/09/20 11:25:42;;;;;;;11.55;8.38;;;18.40;99.90;;;;;;4977906;28;20228;-79
2021/09/20 11:28:09;;;;;;;13.88;9.00;;;18.40;99.90;;;;;;4980948;28;20081;-80
2021/09/20 11:30:37;;;;;;;9.13;7.68;;;18.60;99.90;;;;;;4982646;28;20043;-79
2021/09/20 11:33:10;;;;;;;10.32;7.63;;;18.80;99.90;;;;;;4981041;28;20055;-79
2021/09/20 11:35:37;;;;;;;11.68;8.73;;;19.00;99.90;;;;;;4981805;28;20051;-80
2021/09/20 11:38:11;;;;;;;9.70;8.70;;;19.00;99.90;;;;;;4981429;28;20078;-80
2021/09/20 11:40:38;;;;;;;8.45;7.32;;;18.90;99.90;;;;;;4982051;28;20046;-81
2021/09/20 11:43:07;;;;;;;7.90;7.10;;;19.10;99.90;;;;;;4980804;28;20141;-80
2021/09/20 11:45:37;;;;;;;8.32;7.38;;;19.10;99.90;;;;;;4981075;28;20134;-79
2021/09/20 11:48:07;;;;;;;9.50;7.55;;;19.20;99.90;;;;;;4981622;28;20141;-80
2021/09/20 11:50:36;;;;;;;8.25;7.43;;;19.10;99.90;;;;;;4981020;28;20568;-81
2021/09/20 11:53:07;;;;;;;10.70;7.55;;;19.30;99.90;;;;;;4980614;28;20054;-80
2021/09/20 11:55:35;;;;;;;7.75;6.95;;;19.20;99.90;;;;;;4982120;28;20078;-81
2021/09/20 11:58:05;;;;;;;8.70;7.07;;;19.00;99.90;;;;;;4981459;28;20074;-81
2021/09/20 12:00:35;;;;;;;15.38;9.18;;;19.00;99.90;;;;;;4981120;28;20074;-80
2021/09/20 12:03:05;;;;;;;10.80;7.30;;;18.80;99.90;;;;;;4981407;28;20114;-80
2021/09/20 12:05:33;;;;;;;10.85;7.90;;;18.90;99.90;;;;;;4981076;28;20055;-80
2021/09/20 12:08:02;;;;;;;8.32;7.20;;;19.00;99.90;;;;;;4980456;28;20082;-80
2021/09/20 12:10:31;;;;;;;10.90;7.63;;;18.90;99.90;;;;;;4983247;28;20062;-79
2021/09/20 12:13:02;;;;;;;8.38;7.57;;;19.10;99.90;;;;;;4981196;28;20114;-81
2021/09/20 12:15:31;;;;;;;9.98;7.50;;;19.00;99.90;;;;;;4982593;28;20055;-81
2021/09/20 12:18:01;;;;;;;8.40;7.50;;;19.10;99.90;;;;;;4982165;28;20054;-81
2021/09/20 12:20:32;;;;;;;10.10;8.45;;;19.10;99.90;;;;;;4981388;28;20126;-80
2021/09/20 12:23:02;;;;;;;8.60;7.10;;;19.00;99.90;;;;;;4980504;28;20345;-80
2021/09/20 12:25:36;;;;;;;10.40;8.10;;;19.10;99.90;;;;;;4981162;28;20141;-80
2021/09/20 12:28:05;;;;;;;7.65;6.85;;;19.20;99.90;;;;;;4981616;28;20106;-80
2021/09/20 12:30:34;;;;;;;8.48;7.60;;;19.10;99.90;;;;;;4980981;28;20105;-79
2021/09/20 12:33:12;;;;;;;8.75;7.68;;;19.00;99.90;;;;;;4980819;28;20061;-79
2021/09/20 12:35:44;;;;;;;8.30;7.25;;;19.00;99.90;;;;;;4980923;28;20058;-80
2021/09/20 12:38:27;;;;;;;8.20;7.40;;;18.80;99.90;;;;;;4981731;28;20058;-80
2021/09/20 12:40:56;;;;;;;9.10;7.35;;;18.90;99.90;;;;;;4981065;28;20058;-79